sensor_id;sensor_type;location;lat;lon;timestamp;P1;durP1;ratioP1;P2;durP2;ratioP2
41311;SDS011;27061;41.648;24.568;2023-04-12T00:02:18;6.22;;;5.00;;
41311;SDS011;27061;41.648;24.568;2023-04-12T00:04:45;5.72;;;5.07;;
41311;SDS011;27061;41.648;24.568;2023-04-12T00:07:15;6.57;;;5.88;;
41311;SDS011;27061;41.648;24.568;2023-04-12T00:09:43;8.93;;;5.75;;
41311;SDS011;27061;41.648;24.568;2023-04-12T00:12:10;6.00;;;5.40;;
41311;SDS011;27061;41.648;24.568;2023-04-12T00:14:37;14.95;;;5.28;;
41311;SDS011;27061;41.648;24.568;2023-04-12T00:17:04;9.00;;;5.72;;
41311;SDS011;27061;41.648;24.568;2023-04-12T00:19:31;7.63;;;5.30;;
41311;SDS011;27061;41.648;24.568;2023-04-12T00:21:58;10.20;;;5.55;;
41311;SDS011;27061;41.648;24.568;2023-04-12T00:24:25;11.02;;;5.30;;
41311;SDS011;27061;41.648;24.568;2023-04-12T00:26:52;6.80;;;5.25;;
41311;SDS011;27061;41.648;24.568;2023-04-12T00:29:19;5.97;;;4.97;;
41311;SDS011;27061;41.648;24.568;2023-04-12T00:31:47;6.80;;;5.55;;
41311;SDS011;27061;41.648;24.568;2023-04-12T00:34:14;6.70;;;5.28;;
41311;SDS011;27061;41.648;24.568;2023-04-12T00:36:41;9.77;;;5.03;;
41311;SDS011;27061;41.648;24.568;2023-04-12T00:39:08;5.95;;;4.25;;
41311;SDS011;27061;41.648;24.568;2023-04-12T00:41:36;11.35;;;5.15;;
41311;SDS011;27061;41.648;24.568;2023-04-12T00:44:03;9.48;;;5.35;;
41311;SDS011;27061;41.648;24.568;2023-04-12T00:46:31;5.68;;;4.65;;
41311;SDS011;27061;41.648;24.568;2023-04-12T00:48:58;7.82;;;4.78;;
41311;SDS011;27061;41.648;24.568;2023-04-12T00:51:26;6.38;;;5.05;;
41311;SDS011;27061;41.648;24.568;2023-04-12T00:53:54;8.20;;;5.13;;
41311;SDS011;27061;41.648;24.568;2023-04-12T00:56:25;4.78;;;4.20;;
41311;SDS011;27061;41.648;24.568;2023-04-12T00:58:54;4.97;;;4.47;;
41311;SDS011;27061;41.648;24.568;2023-04-12T01:01:22;7.47;;;4.25;;
41311;SDS011;27061;41.648;24.568;2023-04-12T01:03:50;5.65;;;4.63;;
41311;SDS011;27061;41.648;24.568;2023-04-12T01:11:43;4.78;;;4.32;;
41311;SDS011;27061;41.648;24.568;2023-04-12T01:14:16;7.15;;;4.53;;
41311;SDS011;27061;41.648;24.568;2023-04-12T01:17:06;5.97;;;4.68;;
41311;SDS011;27061;41.648;24.568;2023-04-12T01:19:56;4.50;;;4.10;;
41311;SDS011;27061;41.648;24.568;2023-04-12T01:25:20;4.70;;;4.18;;
41311;SDS011;27061;41.648;24.568;2023-04-12T01:28:12;5.95;;;4.45;;
41311;SDS011;27061;41.648;24.568;2023-04-12T01:30:45;6.88;;;4.90;;
41311;SDS011;27061;41.648;24.568;2023-04-12T01:33:16;7.00;;;4.43;;
41311;SDS011;27061;41.648;24.568;2023-04-12T01:35:44;6.32;;;4.25;;
41311;SDS011;27061;41.648;24.568;2023-04-12T01:38:12;6.10;;;4.45;;
41311;SDS011;27061;41.648;24.568;2023-04-12T01:40:39;5.32;;;4.47;;
41311;SDS011;27061;41.648;24.568;2023-04-12T01:43:08;4.32;;;3.92;;
41311;SDS011;27061;41.648;24.568;2023-04-12T01:45:37;4.15;;;3.47;;
41311;SDS011;27061;41.648;24.568;2023-04-12T01:48:05;6.38;;;4.05;;
41311;SDS011;27061;41.648;24.568;2023-04-12T01:53:42;6.90;;;4.30;;
41311;SDS011;27061;41.648;24.568;2023-04-12T01:56:25;4.25;;;3.85;;
41311;SDS011;27061;41.648;24.568;2023-04-12T01:58:56;5.38;;;3.67;;
41311;SDS011;27061;41.648;24.568;2023-04-12T02:01:26;4.25;;;3.83;;
41311;SDS011;27061;41.648;24.568;2023-04-12T02:03:56;4.45;;;4.05;;
41311;SDS011;27061;41.648;24.568;2023-04-12T02:06:28;4.65;;;3.85;;
41311;SDS011;27061;41.648;24.568;2023-04-12T02:08:57;6.97;;;3.67;;
41311;SDS011;27061;41.648;24.568;2023-04-12T02:11:28;3.17;;;2.90;;
41311;SDS011;27061;41.648;24.568;2023-04-12T02:13:55;3.72;;;3.42;;
41311;SDS011;27061;41.648;24.568;2023-04-12T02:16:22;4.95;;;3.45;;
41311;SDS011;27061;41.648;24.568;2023-04-12T02:18:50;8.63;;;3.92;;
41311;SDS011;27061;41.648;24.568;2023-04-12T02:21:17;4.22;;;3.88;;
41311;SDS011;27061;41.648;24.568;2023-04-12T02:23:45;6.22;;;3.60;;
41311;SDS011;27061;41.648;24.568;2023-04-12T02:26:12;4.20;;;3.80;;
41311;SDS011;27061;41.648;24.568;2023-04-12T02:28:39;3.60;;;3.25;;
41311;SDS011;27061;41.648;24.568;2023-04-12T02:31:09;6.53;;;3.78;;
41311;SDS011;27061;41.648;24.568;2023-04-12T02:33:39;6.30;;;3.83;;
41311;SDS011;27061;41.648;24.568;2023-04-12T02:36:08;3.78;;;3.45;;
41311;SDS011;27061;41.648;24.568;2023-04-12T02:38:38;3.05;;;2.78;;
41311;SDS011;27061;41.648;24.568;2023-04-12T02:41:06;3.45;;;3.15;;
41311;SDS011;27061;41.648;24.568;2023-04-12T02:43:34;6.30;;;4.18;;
41311;SDS011;27061;41.648;24.568;2023-04-12T02:46:06;7.70;;;4.22;;
41311;SDS011;27061;41.648;24.568;2023-04-12T02:48:43;5.07;;;4.07;;
41311;SDS011;27061;41.648;24.568;2023-04-12T02:51:10;5.13;;;4.55;;
41311;SDS011;27061;41.648;24.568;2023-04-12T02:53:40;4.70;;;4.20;;
41311;SDS011;27061;41.648;24.568;2023-04-12T02:56:16;4.30;;;3.72;;
41311;SDS011;27061;41.648;24.568;2023-04-12T02:58:48;5.50;;;3.05;;
41311;SDS011;27061;41.648;24.568;2023-04-12T03:01:29;3.97;;;3.58;;
41311;SDS011;27061;41.648;24.568;2023-04-12T03:04:17;6.63;;;4.25;;
41311;SDS011;27061;41.648;24.568;2023-04-12T03:06:51;5.78;;;4.13;;
41311;SDS011;27061;41.648;24.568;2023-04-12T03:09:26;4.05;;;3.72;;
41311;SDS011;27061;41.648;24.568;2023-04-12T03:11:54;6.25;;;4.13;;
41311;SDS011;27061;41.648;24.568;2023-04-12T03:14:22;5.43;;;3.63;;
41311;SDS011;27061;41.648;24.568;2023-04-12T03:16:51;4.78;;;4.20;;
41311;SDS011;27061;41.648;24.568;2023-04-12T03:19:19;4.20;;;3.80;;
41311;SDS011;27061;41.648;24.568;2023-04-12T03:21:53;5.25;;;3.95;;
41311;SDS011;27061;41.648;24.568;2023-04-12T03:24:21;5.78;;;3.78;;
41311;SDS011;27061;41.648;24.568;2023-04-12T03:26:49;9.15;;;4.07;;
41311;SDS011;27061;41.648;24.568;2023-04-12T03:29:22;4.55;;;4.13;;
41311;SDS011;27061;41.648;24.568;2023-04-12T03:31:51;5.40;;;4.57;;
41311;SDS011;27061;41.648;24.568;2023-04-12T03:34:19;7.90;;;4.28;;
41311;SDS011;27061;41.648;24.568;2023-04-12T03:36:50;9.55;;;4.57;;
41311;SDS011;27061;41.648;24.568;2023-04-12T03:39:47;11.80;;;5.57;;
41311;SDS011;27061;41.648;24.568;2023-04-12T03:42:20;6.70;;;4.55;;
41311;SDS011;27061;41.648;24.568;2023-04-12T03:45:08;7.70;;;4.45;;
41311;SDS011;27061;41.648;24.568;2023-04-12T03:47:37;9.60;;;4.55;;
41311;SDS011;27061;41.648;24.568;2023-04-12T03:50:05;10.30;;;4.05;;
41311;SDS011;27061;41.648;24.568;2023-04-12T03:52:44;5.43;;;4.35;;
41311;SDS011;27061;41.648;24.568;2023-04-12T03:55:12;10.05;;;4.20;;
41311;SDS011;27061;41.648;24.568;2023-04-12T03:57:45;6.32;;;4.55;;
41311;SDS011;27061;41.648;24.568;2023-04-12T04:00:13;18.50;;;5.30;;
41311;SDS011;27061;41.648;24.568;2023-04-12T04:03:04;6.13;;;4.60;;
41311;SDS011;27061;41.648;24.568;2023-04-12T04:05:40;7.65;;;4.85;;
41311;SDS011;27061;41.648;24.568;2023-04-12T04:08:07;8.85;;;4.32;;
41311;SDS011;27061;41.648;24.568;2023-04-12T04:10:48;8.07;;;5.05;;
41311;SDS011;27061;41.648;24.568;2023-04-12T04:13:16;9.88;;;4.95;;
41311;SDS011;27061;41.648;24.568;2023-04-12T04:15:43;9.43;;;4.75;;
41311;SDS011;27061;41.648;24.568;2023-04-12T04:18:10;12.18;;;5.20;;
41311;SDS011;27061;41.648;24.568;2023-04-12T04:20:38;8.00;;;5.00;;
41311;SDS011;27061;41.648;24.568;2023-04-12T04:23:05;6.30;;;4.55;;
41311;SDS011;27061;41.648;24.568;2023-04-12T04:25:33;9.35;;;5.18;;
41311;SDS011;27061;41.648;24.568;2023-04-12T04:28:05;8.43;;;5.50;;
41311;SDS011;27061;41.648;24.568;2023-04-12T04:30:33;6.93;;;4.68;;
41311;SDS011;27061;41.648;24.568;2023-04-12T04:33:07;16.15;;;5.28;;
41311;SDS011;27061;41.648;24.568;2023-04-12T04:35:37;32.45;;;5.95;;
41311;SDS011;27061;41.648;24.568;2023-04-12T04:38:25;15.07;;;4.95;;
41311;SDS011;27061;41.648;24.568;2023-04-12T04:41:01;8.00;;;5.68;;
41311;SDS011;27061;41.648;24.568;2023-04-12T04:43:42;7.78;;;5.50;;
41311;SDS011;27061;41.648;24.568;2023-04-12T04:46:14;9.90;;;5.60;;
41311;SDS011;27061;41.648;24.568;2023-04-12T04:48:42;8.65;;;6.00;;
41311;SDS011;27061;41.648;24.568;2023-04-12T04:51:10;8.35;;;5.72;;
41311;SDS011;27061;41.648;24.568;2023-04-12T04:53:37;18.60;;;6.57;;
41311;SDS011;27061;41.648;24.568;2023-04-12T04:56:04;8.30;;;6.20;;
41311;SDS011;27061;41.648;24.568;2023-04-12T04:58:34;8.07;;;5.93;;
41311;SDS011;27061;41.648;24.568;2023-04-12T05:01:02;11.90;;;5.40;;
41311;SDS011;27061;41.648;24.568;2023-04-12T05:03:29;7.35;;;5.70;;
41311;SDS011;27061;41.648;24.568;2023-04-12T05:05:59;10.90;;;6.93;;
41311;SDS011;27061;41.648;24.568;2023-04-12T05:08:31;12.43;;;6.50;;
41311;SDS011;27061;41.648;24.568;2023-04-12T05:10:58;9.93;;;6.00;;
41311;SDS011;27061;41.648;24.568;2023-04-12T05:13:27;11.13;;;6.13;;
41311;SDS011;27061;41.648;24.568;2023-04-12T05:15:54;22.02;;;6.32;;
41311;SDS011;27061;41.648;24.568;2023-04-12T05:18:22;16.17;;;7.32;;
41311;SDS011;27061;41.648;24.568;2023-04-12T05:20:49;11.40;;;7.22;;
41311;SDS011;27061;41.648;24.568;2023-04-12T05:23:16;10.38;;;6.55;;
41311;SDS011;27061;41.648;24.568;2023-04-12T05:25:44;20.27;;;6.90;;
41311;SDS011;27061;41.648;24.568;2023-04-12T05:28:14;11.55;;;6.32;;
41311;SDS011;27061;41.648;24.568;2023-04-12T05:30:43;17.42;;;6.75;;
41311;SDS011;27061;41.648;24.568;2023-04-12T05:33:14;12.85;;;7.32;;
41311;SDS011;27061;41.648;24.568;2023-04-12T05:35:44;22.58;;;12.68;;
41311;SDS011;27061;41.648;24.568;2023-04-12T05:38:11;10.70;;;6.63;;
41311;SDS011;27061;41.648;24.568;2023-04-12T05:40:40;9.73;;;6.35;;
41311;SDS011;27061;41.648;24.568;2023-04-12T05:43:11;14.15;;;7.15;;
41311;SDS011;27061;41.648;24.568;2023-04-12T05:45:39;9.45;;;6.32;;
41311;SDS011;27061;41.648;24.568;2023-04-12T05:48:08;11.18;;;6.40;;
41311;SDS011;27061;41.648;24.568;2023-04-12T05:50:36;20.50;;;7.72;;
41311;SDS011;27061;41.648;24.568;2023-04-12T05:53:03;11.45;;;7.43;;
41311;SDS011;27061;41.648;24.568;2023-04-12T05:55:31;13.27;;;7.68;;
41311;SDS011;27061;41.648;24.568;2023-04-12T05:58:01;19.38;;;11.73;;
41311;SDS011;27061;41.648;24.568;2023-04-12T06:00:29;24.25;;;9.13;;
41311;SDS011;27061;41.648;24.568;2023-04-12T06:02:56;27.45;;;10.30;;
41311;SDS011;27061;41.648;24.568;2023-04-12T06:05:24;25.45;;;13.63;;
41311;SDS011;27061;41.648;24.568;2023-04-12T06:07:51;24.83;;;15.85;;
41311;SDS011;27061;41.648;24.568;2023-04-12T06:10:18;14.07;;;7.25;;
41311;SDS011;27061;41.648;24.568;2023-04-12T06:12:49;18.35;;;8.85;;
41311;SDS011;27061;41.648;24.568;2023-04-12T06:15:17;10.50;;;6.10;;
41311;SDS011;27061;41.648;24.568;2023-04-12T06:17:51;11.80;;;6.35;;
41311;SDS011;27061;41.648;24.568;2023-04-12T06:20:18;14.73;;;6.55;;
41311;SDS011;27061;41.648;24.568;2023-04-12T06:22:46;10.07;;;7.05;;
41311;SDS011;27061;41.648;24.568;2023-04-12T06:25:15;8.60;;;6.78;;
41311;SDS011;27061;41.648;24.568;2023-04-12T06:27:45;12.45;;;7.05;;
41311;SDS011;27061;41.648;24.568;2023-04-12T06:30:15;11.15;;;8.50;;
41311;SDS011;27061;41.648;24.568;2023-04-12T06:32:42;16.00;;;7.40;;
41311;SDS011;27061;41.648;24.568;2023-04-12T06:35:09;13.63;;;6.07;;
41311;SDS011;27061;41.648;24.568;2023-04-12T06:37:37;8.40;;;6.20;;
41311;SDS011;27061;41.648;24.568;2023-04-12T06:40:04;10.75;;;6.28;;
41311;SDS011;27061;41.648;24.568;2023-04-12T06:42:32;8.57;;;6.78;;
41311;SDS011;27061;41.648;24.568;2023-04-12T06:44:59;12.40;;;6.15;;
41311;SDS011;27061;41.648;24.568;2023-04-12T06:47:26;11.43;;;6.43;;
41311;SDS011;27061;41.648;24.568;2023-04-12T06:49:53;11.13;;;6.35;;
41311;SDS011;27061;41.648;24.568;2023-04-12T06:52:23;19.05;;;6.45;;
41311;SDS011;27061;41.648;24.568;2023-04-12T06:54:54;21.55;;;8.10;;
41311;SDS011;27061;41.648;24.568;2023-04-12T06:57:24;8.75;;;5.63;;
41311;SDS011;27061;41.648;24.568;2023-04-12T06:59:52;8.60;;;5.25;;
41311;SDS011;27061;41.648;24.568;2023-04-12T07:02:19;5.60;;;4.45;;
41311;SDS011;27061;41.648;24.568;2023-04-12T07:04:50;6.13;;;5.35;;
41311;SDS011;27061;41.648;24.568;2023-04-12T07:07:18;7.38;;;4.03;;
41311;SDS011;27061;41.648;24.568;2023-04-12T07:09:48;5.72;;;3.83;;
41311;SDS011;27061;41.648;24.568;2023-04-12T07:12:16;7.22;;;3.92;;
41311;SDS011;27061;41.648;24.568;2023-04-12T07:14:44;5.35;;;3.92;;
41311;SDS011;27061;41.648;24.568;2023-04-12T07:17:11;3.83;;;3.40;;
41311;SDS011;27061;41.648;24.568;2023-04-12T07:19:38;5.85;;;3.90;;
41311;SDS011;27061;41.648;24.568;2023-04-12T07:22:07;4.03;;;3.38;;
41311;SDS011;27061;41.648;24.568;2023-04-12T07:24:35;4.75;;;3.13;;
41311;SDS011;27061;41.648;24.568;2023-04-12T07:27:02;3.55;;;3.25;;
41311;SDS011;27061;41.648;24.568;2023-04-12T07:29:29;5.20;;;2.92;;
41311;SDS011;27061;41.648;24.568;2023-04-12T07:31:57;8.32;;;4.78;;
41311;SDS011;27061;41.648;24.568;2023-04-12T07:34:25;4.00;;;3.03;;
41311;SDS011;27061;41.648;24.568;2023-04-12T07:36:53;9.00;;;2.58;;
41311;SDS011;27061;41.648;24.568;2023-04-12T07:39:20;3.67;;;3.00;;
41311;SDS011;27061;41.648;24.568;2023-04-12T07:41:48;3.67;;;2.63;;
41311;SDS011;27061;41.648;24.568;2023-04-12T07:44:15;4.60;;;2.45;;
41311;SDS011;27061;41.648;24.568;2023-04-12T07:46:42;4.65;;;2.83;;
41311;SDS011;27061;41.648;24.568;2023-04-12T07:49:09;11.02;;;2.80;;
41311;SDS011;27061;41.648;24.568;2023-04-12T07:51:37;7.00;;;4.22;;
41311;SDS011;27061;41.648;24.568;2023-04-12T07:54:04;7.13;;;4.20;;
41311;SDS011;27061;41.648;24.568;2023-04-12T07:56:32;4.28;;;3.88;;
41311;SDS011;27061;41.648;24.568;2023-04-12T07:59:00;3.88;;;3.33;;
41311;SDS011;27061;41.648;24.568;2023-04-12T08:01:27;5.05;;;4.13;;
41311;SDS011;27061;41.648;24.568;2023-04-12T08:03:54;7.10;;;4.22;;
41311;SDS011;27061;41.648;24.568;2023-04-12T08:06:22;4.78;;;3.78;;
41311;SDS011;27061;41.648;24.568;2023-04-12T08:08:51;5.78;;;4.32;;
41311;SDS011;27061;41.648;24.568;2023-04-12T08:11:18;3.25;;;3.05;;
41311;SDS011;27061;41.648;24.568;2023-04-12T08:13:45;4.15;;;2.90;;
41311;SDS011;27061;41.648;24.568;2023-04-12T08:16:12;3.08;;;2.88;;
41311;SDS011;27061;41.648;24.568;2023-04-12T08:18:39;2.55;;;2.35;;
41311;SDS011;27061;41.648;24.568;2023-04-12T08:21:07;3.90;;;2.25;;
41311;SDS011;27061;41.648;24.568;2023-04-12T08:23:34;3.72;;;2.40;;
41311;SDS011;27061;41.648;24.568;2023-04-12T08:26:01;4.15;;;3.63;;
41311;SDS011;27061;41.648;24.568;2023-04-12T08:28:30;5.63;;;3.13;;
41311;SDS011;27061;41.648;24.568;2023-04-12T08:30:58;8.38;;;3.85;;
41311;SDS011;27061;41.648;24.568;2023-04-12T08:33:25;7.15;;;3.25;;
41311;SDS011;27061;41.648;24.568;2023-04-12T08:35:53;3.03;;;2.83;;
41311;SDS011;27061;41.648;24.568;2023-04-12T08:38:20;7.88;;;5.47;;
41311;SDS011;27061;41.648;24.568;2023-04-12T08:41:03;2.60;;;2.40;;
41311;SDS011;27061;41.648;24.568;2023-04-12T08:43:31;4.72;;;2.78;;
41311;SDS011;27061;41.648;24.568;2023-04-12T08:46:00;7.55;;;5.63;;
41311;SDS011;27061;41.648;24.568;2023-04-12T08:48:27;1.92;;;1.83;;
41311;SDS011;27061;41.648;24.568;2023-04-12T08:50:55;3.25;;;2.70;;
41311;SDS011;27061;41.648;24.568;2023-04-12T08:53:23;2.42;;;2.22;;
41311;SDS011;27061;41.648;24.568;2023-04-12T08:55:50;6.00;;;4.25;;
41311;SDS011;27061;41.648;24.568;2023-04-12T08:58:17;5.03;;;1.95;;
41311;SDS011;27061;41.648;24.568;2023-04-12T09:00:46;3.53;;;3.15;;
41311;SDS011;27061;41.648;24.568;2023-04-12T09:03:14;3.95;;;2.88;;
41311;SDS011;27061;41.648;24.568;2023-04-12T09:05:41;2.30;;;2.10;;
41311;SDS011;27061;41.648;24.568;2023-04-12T09:08:09;3.97;;;2.80;;
41311;SDS011;27061;41.648;24.568;2023-04-12T09:16:44;1.48;;;1.38;;
41311;SDS011;27061;41.648;24.568;2023-04-12T09:19:12;0.90;;;0.90;;
41311;SDS011;27061;41.648;24.568;2023-04-12T09:21:53;5.68;;;1.45;;
41311;SDS011;27061;41.648;24.568;2023-04-12T09:24:21;3.15;;;2.85;;
41311;SDS011;27061;41.648;24.568;2023-04-12T09:27:04;1.73;;;1.60;;
41311;SDS011;27061;41.648;24.568;2023-04-12T09:29:32;3.05;;;2.47;;
41311;SDS011;27061;41.648;24.568;2023-04-12T09:32:00;1.60;;;1.45;;
41311;SDS011;27061;41.648;24.568;2023-04-12T09:34:30;2.80;;;1.38;;
41311;SDS011;27061;41.648;24.568;2023-04-12T09:36:58;5.28;;;1.13;;
41311;SDS011;27061;41.648;24.568;2023-04-12T09:39:34;2.00;;;1.80;;
41311;SDS011;27061;41.648;24.568;2023-04-12T09:42:04;1.83;;;1.73;;
41311;SDS011;27061;41.648;24.568;2023-04-12T09:44:43;11.13;;;1.80;;
41311;SDS011;27061;41.648;24.568;2023-04-12T09:47:11;1.88;;;1.17;;
41311;SDS011;27061;41.648;24.568;2023-04-12T09:49:39;2.63;;;1.33;;
41311;SDS011;27061;41.648;24.568;2023-04-12T09:52:08;1.63;;;1.52;;
41311;SDS011;27061;41.648;24.568;2023-04-12T09:57:11;1.00;;;0.88;;
41311;SDS011;27061;41.648;24.568;2023-04-12T09:59:39;6.88;;;2.08;;
41311;SDS011;27061;41.648;24.568;2023-04-12T10:02:13;2.20;;;1.10;;
41311;SDS011;27061;41.648;24.568;2023-04-12T10:04:43;4.28;;;1.80;;
41311;SDS011;27061;41.648;24.568;2023-04-12T10:07:11;1.23;;;1.13;;
41311;SDS011;27061;41.648;24.568;2023-04-12T10:09:40;6.28;;;4.10;;
41311;SDS011;27061;41.648;24.568;2023-04-12T10:12:07;5.95;;;5.43;;
41311;SDS011;27061;41.648;24.568;2023-04-12T10:14:35;3.63;;;1.10;;
41311;SDS011;27061;41.648;24.568;2023-04-12T10:17:03;1.52;;;1.17;;
41311;SDS011;27061;41.648;24.568;2023-04-12T10:19:31;2.72;;;0.95;;
41311;SDS011;27061;41.648;24.568;2023-04-12T10:22:01;1.10;;;1.10;;
41311;SDS011;27061;41.648;24.568;2023-04-12T10:24:28;7.43;;;0.95;;
41311;SDS011;27061;41.648;24.568;2023-04-12T10:26:56;2.15;;;1.95;;
41311;SDS011;27061;41.648;24.568;2023-04-12T10:29:30;4.85;;;1.10;;
41311;SDS011;27061;41.648;24.568;2023-04-12T10:32:19;1.20;;;1.10;;
41311;SDS011;27061;41.648;24.568;2023-04-12T10:34:51;1.13;;;1.13;;
41311;SDS011;27061;41.648;24.568;2023-04-12T10:37:19;3.80;;;1.10;;
41311;SDS011;27061;41.648;24.568;2023-04-12T10:39:53;2.53;;;1.10;;
41311;SDS011;27061;41.648;24.568;2023-04-12T10:42:24;2.65;;;1.33;;
41311;SDS011;27061;41.648;24.568;2023-04-12T10:44:54;1.40;;;1.30;;
41311;SDS011;27061;41.648;24.568;2023-04-12T10:50:19;0.80;;;0.80;;
41311;SDS011;27061;41.648;24.568;2023-04-12T10:55:38;0.90;;;0.90;;
41311;SDS011;27061;41.648;24.568;2023-04-12T10:58:07;1.30;;;1.20;;
41311;SDS011;27061;41.648;24.568;2023-04-12T11:03:26;1.00;;;1.00;;
41311;SDS011;27061;41.648;24.568;2023-04-12T11:05:57;1.35;;;1.30;;
41311;SDS011;27061;41.648;24.568;2023-04-12T11:09:03;0.90;;;0.90;;
41311;SDS011;27061;41.648;24.568;2023-04-12T11:11:33;1.50;;;1.02;;
41311;SDS011;27061;41.648;24.568;2023-04-12T11:14:00;1.13;;;0.88;;
41311;SDS011;27061;41.648;24.568;2023-04-12T11:16:28;2.05;;;1.10;;
41311;SDS011;27061;41.648;24.568;2023-04-12T11:18:55;1.10;;;1.10;;
41311;SDS011;27061;41.648;24.568;2023-04-12T11:21:23;3.28;;;1.15;;
41311;SDS011;27061;41.648;24.568;2023-04-12T11:23:51;5.72;;;0.80;;
41311;SDS011;27061;41.648;24.568;2023-04-12T11:26:19;1.88;;;0.80;;
41311;SDS011;27061;41.648;24.568;2023-04-12T11:28:47;1.60;;;1.20;;
41311;SDS011;27061;41.648;24.568;2023-04-12T11:31:18;1.40;;;0.80;;
41311;SDS011;27061;41.648;24.568;2023-04-12T11:33:47;1.30;;;1.20;;
41311;SDS011;27061;41.648;24.568;2023-04-12T11:36:14;4.05;;;1.90;;
41311;SDS011;27061;41.648;24.568;2023-04-12T11:38:42;1.33;;;1.30;;
41311;SDS011;27061;41.648;24.568;2023-04-12T11:41:13;1.83;;;1.15;;
41311;SDS011;27061;41.648;24.568;2023-04-12T11:43:40;0.93;;;0.90;;
41311;SDS011;27061;41.648;24.568;2023-04-12T11:46:08;1.00;;;1.00;;
41311;SDS011;27061;41.648;24.568;2023-04-12T11:48:35;2.95;;;0.90;;
41311;SDS011;27061;41.648;24.568;2023-04-12T11:51:20;1.13;;;1.02;;
41311;SDS011;27061;41.648;24.568;2023-04-12T11:53:51;1.13;;;1.13;;
41311;SDS011;27061;41.648;24.568;2023-04-12T11:56:20;2.08;;;1.65;;
41311;SDS011;27061;41.648;24.568;2023-04-12T11:58:47;2.80;;;1.27;;
41311;SDS011;27061;41.648;24.568;2023-04-12T12:01:15;1.40;;;1.30;;
41311;SDS011;27061;41.648;24.568;2023-04-12T12:03:44;1.45;;;1.25;;
41311;SDS011;27061;41.648;24.568;2023-04-12T12:06:13;4.40;;;1.48;;
41311;SDS011;27061;41.648;24.568;2023-04-12T12:08:41;6.07;;;1.40;;
41311;SDS011;27061;41.648;24.568;2023-04-12T12:11:08;1.05;;;1.00;;
41311;SDS011;27061;41.648;24.568;2023-04-12T12:13:51;1.00;;;1.00;;
41311;SDS011;27061;41.648;24.568;2023-04-12T12:16:26;1.40;;;1.30;;
41311;SDS011;27061;41.648;24.568;2023-04-12T12:18:55;6.75;;;1.15;;
41311;SDS011;27061;41.648;24.568;2023-04-12T12:21:22;1.80;;;1.25;;
41311;SDS011;27061;41.648;24.568;2023-04-12T12:23:52;0.90;;;0.90;;
41311;SDS011;27061;41.648;24.568;2023-04-12T12:26:23;1.27;;;1.17;;
41311;SDS011;27061;41.648;24.568;2023-04-12T12:28:52;1.13;;;1.08;;
41311;SDS011;27061;41.648;24.568;2023-04-12T12:31:22;9.90;;;1.70;;
41311;SDS011;27061;41.648;24.568;2023-04-12T12:33:58;5.13;;;1.42;;
41311;SDS011;27061;41.648;24.568;2023-04-12T12:36:34;6.57;;;1.83;;
41311;SDS011;27061;41.648;24.568;2023-04-12T12:39:03;2.40;;;2.20;;
41311;SDS011;27061;41.648;24.568;2023-04-12T12:41:32;3.38;;;1.60;;
41311;SDS011;27061;41.648;24.568;2023-04-12T12:44:00;1.80;;;1.70;;
41311;SDS011;27061;41.648;24.568;2023-04-12T12:46:27;2.15;;;1.42;;
41311;SDS011;27061;41.648;24.568;2023-04-12T12:49:15;2.97;;;1.35;;
41311;SDS011;27061;41.648;24.568;2023-04-12T12:51:42;4.18;;;1.55;;
41311;SDS011;27061;41.648;24.568;2023-04-12T12:54:09;1.20;;;1.15;;
41311;SDS011;27061;41.648;24.568;2023-04-12T12:56:37;1.75;;;1.23;;
41311;SDS011;27061;41.648;24.568;2023-04-12T12:59:04;1.85;;;1.10;;
41311;SDS011;27061;41.648;24.568;2023-04-12T13:01:31;1.55;;;1.30;;
41311;SDS011;27061;41.648;24.568;2023-04-12T13:03:58;2.88;;;1.23;;
41311;SDS011;27061;41.648;24.568;2023-04-12T13:06:26;2.85;;;1.08;;
41311;SDS011;27061;41.648;24.568;2023-04-12T13:08:53;3.40;;;1.42;;
41311;SDS011;27061;41.648;24.568;2023-04-12T13:11:21;58.53;;;27.80;;
41311;SDS011;27061;41.648;24.568;2023-04-12T13:13:48;7.90;;;5.18;;
41311;SDS011;27061;41.648;24.568;2023-04-12T13:16:15;2.67;;;1.58;;
41311;SDS011;27061;41.648;24.568;2023-04-12T13:18:42;1.00;;;1.00;;
41311;SDS011;27061;41.648;24.568;2023-04-12T13:21:10;0.95;;;0.95;;
41311;SDS011;27061;41.648;24.568;2023-04-12T13:23:37;8.32;;;4.78;;
41311;SDS011;27061;41.648;24.568;2023-04-12T13:26:04;1.42;;;1.33;;
41311;SDS011;27061;41.648;24.568;2023-04-12T13:28:31;1.90;;;1.80;;
41311;SDS011;27061;41.648;24.568;2023-04-12T13:30:58;3.53;;;1.40;;
41311;SDS011;27061;41.648;24.568;2023-04-12T13:33:25;1.85;;;1.27;;
41311;SDS011;27061;41.648;24.568;2023-04-12T13:35:52;2.53;;;2.30;;
41311;SDS011;27061;41.648;24.568;2023-04-12T13:38:19;2.03;;;1.50;;
41311;SDS011;27061;41.648;24.568;2023-04-12T13:40:46;2.67;;;1.48;;
41311;SDS011;27061;41.648;24.568;2023-04-12T13:43:14;2.08;;;0.98;;
41311;SDS011;27061;41.648;24.568;2023-04-12T13:45:42;8.13;;;1.02;;
41311;SDS011;27061;41.648;24.568;2023-04-12T13:48:10;1.20;;;1.10;;
41311;SDS011;27061;41.648;24.568;2023-04-12T13:50:37;2.38;;;0.80;;
41311;SDS011;27061;41.648;24.568;2023-04-12T13:53:04;6.32;;;3.67;;
41311;SDS011;27061;41.648;24.568;2023-04-12T13:55:32;2.22;;;1.40;;
41311;SDS011;27061;41.648;24.568;2023-04-12T13:57:59;1.25;;;0.57;;
41311;SDS011;27061;41.648;24.568;2023-04-12T14:00:26;11.43;;;7.53;;
41311;SDS011;27061;41.648;24.568;2023-04-12T14:02:53;2.10;;;1.42;;
41311;SDS011;27061;41.648;24.568;2023-04-12T14:05:20;1.02;;;0.90;;
41311;SDS011;27061;41.648;24.568;2023-04-12T14:07:48;0.80;;;0.80;;
41311;SDS011;27061;41.648;24.568;2023-04-12T14:10:16;2.75;;;1.10;;
41311;SDS011;27061;41.648;24.568;2023-04-12T14:12:43;3.25;;;2.70;;
41311;SDS011;27061;41.648;24.568;2023-04-12T14:15:10;0.70;;;0.70;;
41311;SDS011;27061;41.648;24.568;2023-04-12T14:17:37;3.63;;;0.98;;
41311;SDS011;27061;41.648;24.568;2023-04-12T14:20:04;2.65;;;2.15;;
41311;SDS011;27061;41.648;24.568;2023-04-12T14:22:35;1.83;;;1.23;;
41311;SDS011;27061;41.648;24.568;2023-04-12T14:25:03;4.53;;;2.75;;
41311;SDS011;27061;41.648;24.568;2023-04-12T14:27:31;3.10;;;0.80;;
41311;SDS011;27061;41.648;24.568;2023-04-12T14:29:58;1.33;;;1.13;;
41311;SDS011;27061;41.648;24.568;2023-04-12T14:32:25;1.38;;;0.88;;
41311;SDS011;27061;41.648;24.568;2023-04-12T14:34:52;6.68;;;1.98;;
41311;SDS011;27061;41.648;24.568;2023-04-12T14:37:19;1.27;;;0.88;;
41311;SDS011;27061;41.648;24.568;2023-04-12T14:39:47;0.95;;;0.80;;
41311;SDS011;27061;41.648;24.568;2023-04-12T14:42:14;1.67;;;1.20;;
41311;SDS011;27061;41.648;24.568;2023-04-12T14:44:41;2.13;;;1.13;;
41311;SDS011;27061;41.648;24.568;2023-04-12T14:47:08;3.67;;;1.20;;
41311;SDS011;27061;41.648;24.568;2023-04-12T14:49:35;1.55;;;0.77;;
41311;SDS011;27061;41.648;24.568;2023-04-12T14:52:02;1.17;;;1.08;;
41311;SDS011;27061;41.648;24.568;2023-04-12T14:54:30;2.88;;;0.88;;
41311;SDS011;27061;41.648;24.568;2023-04-12T14:56:57;0.85;;;0.80;;
41311;SDS011;27061;41.648;24.568;2023-04-12T14:59:25;0.70;;;0.70;;
41311;SDS011;27061;41.648;24.568;2023-04-12T15:01:55;1.10;;;1.00;;
41311;SDS011;27061;41.648;24.568;2023-04-12T15:04:24;1.42;;;1.33;;
41311;SDS011;27061;41.648;24.568;2023-04-12T15:06:52;1.35;;;1.00;;
41311;SDS011;27061;41.648;24.568;2023-04-12T15:09:19;0.70;;;0.68;;
41311;SDS011;27061;41.648;24.568;2023-04-12T15:11:49;2.45;;;0.77;;
41311;SDS011;27061;41.648;24.568;2023-04-12T15:14:21;0.85;;;0.70;;
41311;SDS011;27061;41.648;24.568;2023-04-12T15:16:48;1.67;;;1.58;;